sensor_id;sensor_type;location;lat;lon;timestamp;P1;durP1;ratioP1;P2;durP2;ratioP2
59599;SDS011;61855;55.030;73.326;2022-07-24T00:01:48;15.68;;;6.55;;
59599;SDS011;61855;55.030;73.326;2022-07-24T00:04:14;18.58;;;7.15;;
59599;SDS011;61855;55.030;73.326;2022-07-24T00:06:41;14.95;;;8.30;;
59599;SDS011;61855;55.030;73.326;2022-07-24T00:09:14;17.02;;;7.90;;
59599;SDS011;61855;55.030;73.326;2022-07-24T00:11:43;16.77;;;8.02;;
59599;SDS011;61855;55.030;73.326;2022-07-24T00:14:09;18.13;;;9.00;;
59599;SDS011;61855;55.030;73.326;2022-07-24T00:16:35;14.98;;;7.78;;
59599;SDS011;61855;55.030;73.326;2022-07-24T00:19:06;16.38;;;7.40;;
59599;SDS011;61855;55.030;73.326;2022-07-24T00:21:32;13.80;;;7.30;;
59599;SDS011;61855;55.030;73.326;2022-07-24T00:24:08;16.55;;;8.52;;
59599;SDS011;61855;55.030;73.326;2022-07-24T00:26:40;11.23;;;7.60;;
59599;SDS011;61855;55.030;73.326;2022-07-24T00:29:08;18.60;;;8.30;;
59599;SDS011;61855;55.030;73.326;2022-07-24T00:31:34;13.05;;;8.32;;
59599;SDS011;61855;55.030;73.326;2022-07-24T00:34:06;10.32;;;6.95;;
59599;SDS011;61855;55.030;73.326;2022-07-24T00:36:32;9.00;;;5.82;;
59599;SDS011;61855;55.030;73.326;2022-07-24T00:39:00;9.15;;;5.25;;
59599;SDS011;61855;55.030;73.326;2022-07-24T00:41:26;8.07;;;5.05;;
59599;SDS011;61855;55.030;73.326;2022-07-24T00:44:04;9.73;;;4.72;;
59599;SDS011;61855;55.030;73.326;2022-07-24T00:46:35;8.07;;;5.00;;
59599;SDS011;61855;55.030;73.326;2022-07-24T00:49:08;7.32;;;5.15;;
59599;SDS011;61855;55.030;73.326;2022-07-24T00:51:36;8.52;;;5.15;;
59599;SDS011;61855;55.030;73.326;2022-07-24T00:54:05;6.72;;;4.22;;
59599;SDS011;61855;55.030;73.326;2022-07-24T00:56:37;8.10;;;5.10;;
59599;SDS011;61855;55.030;73.326;2022-07-24T00:59:05;6.32;;;4.10;;
59599;SDS011;61855;55.030;73.326;2022-07-24T01:01:41;8.07;;;4.82;;
59599;SDS011;61855;55.030;73.326;2022-07-24T01:04:07;5.25;;;3.40;;
59599;SDS011;61855;55.030;73.326;2022-07-24T01:06:34;5.03;;;3.00;;
59599;SDS011;61855;55.030;73.326;2022-07-24T01:09:00;5.18;;;3.10;;
59599;SDS011;61855;55.030;73.326;2022-07-24T01:11:28;7.18;;;4.10;;
59599;SDS011;61855;55.030;73.326;2022-07-24T01:13:54;5.95;;;3.33;;
59599;SDS011;61855;55.030;73.326;2022-07-24T01:16:21;6.47;;;3.20;;
59599;SDS011;61855;55.030;73.326;2022-07-24T01:18:46;6.72;;;3.47;;
59599;SDS011;61855;55.030;73.326;2022-07-24T01:21:12;8.18;;;3.45;;
59599;SDS011;61855;55.030;73.326;2022-07-24T01:23:39;4.57;;;2.92;;
59599;SDS011;61855;55.030;73.326;2022-07-24T01:26:06;6.05;;;3.40;;
59599;SDS011;61855;55.030;73.326;2022-07-24T01:28:38;10.10;;;4.47;;
59599;SDS011;61855;55.030;73.326;2022-07-24T01:31:04;8.77;;;4.22;;
59599;SDS011;61855;55.030;73.326;2022-07-24T01:33:30;9.82;;;4.03;;
59599;SDS011;61855;55.030;73.326;2022-07-24T01:36:01;10.60;;;4.25;;
59599;SDS011;61855;55.030;73.326;2022-07-24T01:38:27;9.15;;;4.22;;
59599;SDS011;61855;55.030;73.326;2022-07-24T01:40:53;12.38;;;3.80;;
59599;SDS011;61855;55.030;73.326;2022-07-24T01:43:19;8.63;;;3.70;;
59599;SDS011;61855;55.030;73.326;2022-07-24T01:45:45;4.72;;;3.10;;
59599;SDS011;61855;55.030;73.326;2022-07-24T01:48:13;5.43;;;2.30;;
59599;SDS011;61855;55.030;73.326;2022-07-24T01:50:39;7.18;;;2.95;;
59599;SDS011;61855;55.030;73.326;2022-07-24T01:53:10;5.43;;;2.90;;
59599;SDS011;61855;55.030;73.326;2022-07-24T01:55:36;7.68;;;2.88;;
59599;SDS011;61855;55.030;73.326;2022-07-24T01:58:02;4.50;;;2.40;;
59599;SDS011;61855;55.030;73.326;2022-07-24T02:00:28;6.53;;;2.42;;
59599;SDS011;61855;55.030;73.326;2022-07-24T02:02:54;8.82;;;2.80;;
59599;SDS011;61855;55.030;73.326;2022-07-24T02:05:21;3.17;;;2.05;;
59599;SDS011;61855;55.030;73.326;2022-07-24T02:07:53;4.43;;;2.30;;
59599;SDS011;61855;55.030;73.326;2022-07-24T02:10:21;7.07;;;2.42;;
59599;SDS011;61855;55.030;73.326;2022-07-24T02:12:48;9.70;;;2.42;;
59599;SDS011;61855;55.030;73.326;2022-07-24T02:15:14;5.80;;;2.72;;
59599;SDS011;61855;55.030;73.326;2022-07-24T02:17:46;6.72;;;2.75;;
59599;SDS011;61855;55.030;73.326;2022-07-24T02:20:14;4.07;;;2.30;;
59599;SDS011;61855;55.030;73.326;2022-07-24T02:22:40;7.78;;;2.35;;
59599;SDS011;61855;55.030;73.326;2022-07-24T02:25:07;10.68;;;2.72;;
59599;SDS011;61855;55.030;73.326;2022-07-24T02:27:39;7.97;;;2.72;;
59599;SDS011;61855;55.030;73.326;2022-07-24T02:30:06;4.82;;;2.05;;
59599;SDS011;61855;55.030;73.326;2022-07-24T02:32:38;1.48;;;1.00;;
59599;SDS011;61855;55.030;73.326;2022-07-24T02:35:07;1.65;;;1.20;;
59599;SDS011;61855;55.030;73.326;2022-07-24T02:37:36;2.95;;;1.48;;
59599;SDS011;61855;55.030;73.326;2022-07-24T02:40:04;1.83;;;1.35;;
59599;SDS011;61855;55.030;73.326;2022-07-24T02:42:32;1.65;;;1.30;;
59599;SDS011;61855;55.030;73.326;2022-07-24T02:44:58;1.90;;;1.10;;
59599;SDS011;61855;55.030;73.326;2022-07-24T02:47:24;3.80;;;1.58;;
59599;SDS011;61855;55.030;73.326;2022-07-24T02:49:50;2.92;;;1.70;;
59599;SDS011;61855;55.030;73.326;2022-07-24T02:52:26;3.17;;;1.00;;
59599;SDS011;61855;55.030;73.326;2022-07-24T02:54:52;2.03;;;1.00;;
59599;SDS011;61855;55.030;73.326;2022-07-24T02:57:19;1.52;;;1.10;;
59599;SDS011;61855;55.030;73.326;2022-07-24T02:59:45;1.45;;;1.30;;
59599;SDS011;61855;55.030;73.326;2022-07-24T03:02:17;2.97;;;1.45;;
59599;SDS011;61855;55.030;73.326;2022-07-24T03:04:43;3.22;;;1.33;;
59599;SDS011;61855;55.030;73.326;2022-07-24T03:07:09;1.65;;;1.05;;
59599;SDS011;61855;55.030;73.326;2022-07-24T03:09:45;3.33;;;1.00;;
59599;SDS011;61855;55.030;73.326;2022-07-24T03:12:10;1.35;;;0.90;;
59599;SDS011;61855;55.030;73.326;2022-07-24T03:14:37;2.80;;;1.27;;
59599;SDS011;61855;55.030;73.326;2022-07-24T03:17:06;2.83;;;0.90;;
59599;SDS011;61855;55.030;73.326;2022-07-24T03:19:32;2.65;;;1.20;;
59599;SDS011;61855;55.030;73.326;2022-07-24T03:21:58;2.95;;;1.40;;
59599;SDS011;61855;55.030;73.326;2022-07-24T03:24:24;3.22;;;1.40;;
59599;SDS011;61855;55.030;73.326;2022-07-24T03:27:05;1.83;;;1.23;;
59599;SDS011;61855;55.030;73.326;2022-07-24T03:29:31;2.17;;;1.00;;
59599;SDS011;61855;55.030;73.326;2022-07-24T03:31:57;1.15;;;0.77;;
59599;SDS011;61855;55.030;73.326;2022-07-24T03:34:25;2.83;;;1.08;;
59599;SDS011;61855;55.030;73.326;2022-07-24T03:36:51;2.15;;;1.10;;
59599;SDS011;61855;55.030;73.326;2022-07-24T03:39:18;4.63;;;1.45;;
59599;SDS011;61855;55.030;73.326;2022-07-24T03:41:45;2.60;;;1.05;;
59599;SDS011;61855;55.030;73.326;2022-07-24T03:44:11;1.80;;;0.80;;
59599;SDS011;61855;55.030;73.326;2022-07-24T03:46:37;1.40;;;0.98;;
59599;SDS011;61855;55.030;73.326;2022-07-24T03:49:03;1.48;;;1.20;;
59599;SDS011;61855;55.030;73.326;2022-07-24T03:51:30;2.20;;;1.30;;
59599;SDS011;61855;55.030;73.326;2022-07-24T03:54:03;2.60;;;1.20;;
59599;SDS011;61855;55.030;73.326;2022-07-24T03:56:30;4.68;;;1.70;;
59599;SDS011;61855;55.030;73.326;2022-07-24T03:58:56;4.18;;;1.63;;
59599;SDS011;61855;55.030;73.326;2022-07-24T04:01:22;7.28;;;2.00;;
59599;SDS011;61855;55.030;73.326;2022-07-24T04:03:48;4.18;;;1.45;;
59599;SDS011;61855;55.030;73.326;2022-07-24T04:06:14;3.83;;;1.13;;
59599;SDS011;61855;55.030;73.326;2022-07-24T04:08:42;0.95;;;0.85;;
59599;SDS011;61855;55.030;73.326;2022-07-24T04:11:18;1.30;;;1.02;;
59599;SDS011;61855;55.030;73.326;2022-07-24T04:13:45;2.22;;;1.60;;
59599;SDS011;61855;55.030;73.326;2022-07-24T04:16:11;0.60;;;0.60;;
59599;SDS011;61855;55.030;73.326;2022-07-24T04:18:37;1.10;;;1.00;;
59599;SDS011;61855;55.030;73.326;2022-07-24T04:21:03;2.05;;;1.00;;
59599;SDS011;61855;55.030;73.326;2022-07-24T04:23:30;2.25;;;1.17;;
59599;SDS011;61855;55.030;73.326;2022-07-24T04:25:56;2.38;;;1.30;;
59599;SDS011;61855;55.030;73.326;2022-07-24T04:28:22;3.28;;;0.80;;
59599;SDS011;61855;55.030;73.326;2022-07-24T04:30:49;1.23;;;0.90;;
59599;SDS011;61855;55.030;73.326;2022-07-24T04:33:16;1.08;;;0.98;;
59599;SDS011;61855;55.030;73.326;2022-07-24T04:35:42;1.33;;;0.85;;
59599;SDS011;61855;55.030;73.326;2022-07-24T04:38:08;3.45;;;1.08;;
59599;SDS011;61855;55.030;73.326;2022-07-24T04:40:34;2.13;;;1.10;;
59599;SDS011;61855;55.030;73.326;2022-07-24T04:43:02;1.00;;;1.00;;
59599;SDS011;61855;55.030;73.326;2022-07-24T04:45:29;1.23;;;1.02;;
59599;SDS011;61855;55.030;73.326;2022-07-24T04:47:54;1.92;;;1.00;;
59599;SDS011;61855;55.030;73.326;2022-07-24T04:50:20;1.83;;;1.10;;
59599;SDS011;61855;55.030;73.326;2022-07-24T04:52:51;1.83;;;1.35;;
59599;SDS011;61855;55.030;73.326;2022-07-24T04:55:17;2.15;;;1.20;;
59599;SDS011;61855;55.030;73.326;2022-07-24T04:57:43;10.43;;;2.00;;
59599;SDS011;61855;55.030;73.326;2022-07-24T05:00:14;0.88;;;0.82;;
59599;SDS011;61855;55.030;73.326;2022-07-24T05:02:41;7.80;;;1.52;;
59599;SDS011;61855;55.030;73.326;2022-07-24T05:05:17;1.80;;;0.90;;
59599;SDS011;61855;55.030;73.326;2022-07-24T05:07:43;0.80;;;0.70;;
59599;SDS011;61855;55.030;73.326;2022-07-24T05:10:09;1.50;;;0.90;;
59599;SDS011;61855;55.030;73.326;2022-07-24T05:12:35;2.00;;;0.85;;
59599;SDS011;61855;55.030;73.326;2022-07-24T05:15:03;1.20;;;1.10;;
59599;SDS011;61855;55.030;73.326;2022-07-24T05:17:36;1.52;;;1.20;;
59599;SDS011;61855;55.030;73.326;2022-07-24T05:20:11;1.52;;;1.17;;
59599;SDS011;61855;55.030;73.326;2022-07-24T05:22:40;2.42;;;1.00;;
59599;SDS011;61855;55.030;73.326;2022-07-24T05:25:08;2.13;;;0.90;;
59599;SDS011;61855;55.030;73.326;2022-07-24T05:27:34;2.08;;;1.20;;
59599;SDS011;61855;55.030;73.326;2022-07-24T05:30:01;1.00;;;0.90;;
59599;SDS011;61855;55.030;73.326;2022-07-24T05:32:27;1.00;;;1.00;;
59599;SDS011;61855;55.030;73.326;2022-07-24T05:34:56;1.38;;;0.98;;
59599;SDS011;61855;55.030;73.326;2022-07-24T05:37:23;3.00;;;1.27;;
59599;SDS011;61855;55.030;73.326;2022-07-24T05:39:49;2.25;;;0.93;;
59599;SDS011;61855;55.030;73.326;2022-07-24T05:42:19;2.33;;;0.95;;
59599;SDS011;61855;55.030;73.326;2022-07-24T05:44:46;2.28;;;1.00;;
59599;SDS011;61855;55.030;73.326;2022-07-24T05:47:12;7.07;;;2.08;;
59599;SDS011;61855;55.030;73.326;2022-07-24T05:49:38;5.05;;;1.40;;
59599;SDS011;61855;55.030;73.326;2022-07-24T05:52:04;1.98;;;1.30;;
59599;SDS011;61855;55.030;73.326;2022-07-24T05:54:30;1.75;;;0.90;;
59599;SDS011;61855;55.030;73.326;2022-07-24T05:56:56;2.35;;;1.10;;
59599;SDS011;61855;55.030;73.326;2022-07-24T05:59:35;1.05;;;0.88;;
59599;SDS011;61855;55.030;73.326;2022-07-24T06:02:01;2.03;;;1.25;;
59599;SDS011;61855;55.030;73.326;2022-07-24T06:04:30;1.85;;;1.15;;
59599;SDS011;61855;55.030;73.326;2022-07-24T06:06:56;3.97;;;1.58;;
59599;SDS011;61855;55.030;73.326;2022-07-24T06:09:47;1.65;;;1.38;;
59599;SDS011;61855;55.030;73.326;2022-07-24T06:12:13;6.13;;;1.50;;
59599;SDS011;61855;55.030;73.326;2022-07-24T06:14:39;2.22;;;1.60;;
59599;SDS011;61855;55.030;73.326;2022-07-24T06:17:05;1.75;;;1.27;;
59599;SDS011;61855;55.030;73.326;2022-07-24T06:19:31;2.25;;;1.40;;
59599;SDS011;61855;55.030;73.326;2022-07-24T06:21:57;1.92;;;1.20;;
59599;SDS011;61855;55.030;73.326;2022-07-24T06:24:23;1.80;;;1.27;;
59599;SDS011;61855;55.030;73.326;2022-07-24T06:26:49;1.83;;;1.25;;
59599;SDS011;61855;55.030;73.326;2022-07-24T06:29:15;3.00;;;1.30;;
59599;SDS011;61855;55.030;73.326;2022-07-24T06:31:41;2.70;;;1.95;;
59599;SDS011;61855;55.030;73.326;2022-07-24T06:34:07;1.92;;;1.23;;
59599;SDS011;61855;55.030;73.326;2022-07-24T06:36:33;2.97;;;1.65;;
59599;SDS011;61855;55.030;73.326;2022-07-24T06:38:59;2.25;;;1.48;;
59599;SDS011;61855;55.030;73.326;2022-07-24T06:41:26;3.95;;;2.13;;
59599;SDS011;61855;55.030;73.326;2022-07-24T06:43:52;4.72;;;2.33;;
59599;SDS011;61855;55.030;73.326;2022-07-24T06:46:18;8.63;;;3.60;;
59599;SDS011;61855;55.030;73.326;2022-07-24T06:48:44;3.47;;;2.13;;
59599;SDS011;61855;55.030;73.326;2022-07-24T06:51:11;5.32;;;2.20;;
59599;SDS011;61855;55.030;73.326;2022-07-24T06:53:47;3.50;;;1.67;;
59599;SDS011;61855;55.030;73.326;2022-07-24T06:56:13;8.77;;;3.55;;
59599;SDS011;61855;55.030;73.326;2022-07-24T06:58:39;17.88;;;3.38;;
59599;SDS011;61855;55.030;73.326;2022-07-24T07:01:05;16.63;;;4.72;;
59599;SDS011;61855;55.030;73.326;2022-07-24T07:03:31;32.00;;;4.47;;
59599;SDS011;61855;55.030;73.326;2022-07-24T07:05:57;8.82;;;4.93;;
59599;SDS011;61855;55.030;73.326;2022-07-24T07:08:23;6.68;;;2.30;;
59599;SDS011;61855;55.030;73.326;2022-07-24T07:10:49;2.40;;;1.50;;
59599;SDS011;61855;55.030;73.326;2022-07-24T07:13:15;6.70;;;1.92;;
59599;SDS011;61855;55.030;73.326;2022-07-24T07:15:51;8.65;;;3.17;;
59599;SDS011;61855;55.030;73.326;2022-07-24T07:18:18;4.15;;;1.77;;
59599;SDS011;61855;55.030;73.326;2022-07-24T07:20:44;7.10;;;2.00;;
59599;SDS011;61855;55.030;73.326;2022-07-24T07:23:15;5.85;;;2.05;;
59599;SDS011;61855;55.030;73.326;2022-07-24T07:25:51;4.65;;;2.30;;
59599;SDS011;61855;55.030;73.326;2022-07-24T07:28:17;3.42;;;1.55;;
59599;SDS011;61855;55.030;73.326;2022-07-24T07:30:43;2.35;;;1.55;;
59599;SDS011;61855;55.030;73.326;2022-07-24T07:33:09;3.67;;;2.53;;
59599;SDS011;61855;55.030;73.326;2022-07-24T07:35:35;6.20;;;2.40;;
59599;SDS011;61855;55.030;73.326;2022-07-24T07:38:02;28.35;;;5.03;;
59599;SDS011;61855;55.030;73.326;2022-07-24T07:40:28;41.53;;;5.97;;
59599;SDS011;61855;55.030;73.326;2022-07-24T07:42:59;38.92;;;6.30;;
59599;SDS011;61855;55.030;73.326;2022-07-24T07:45:25;29.48;;;5.97;;
59599;SDS011;61855;55.030;73.326;2022-07-24T07:47:51;25.98;;;5.03;;
59599;SDS011;61855;55.030;73.326;2022-07-24T07:50:17;31.80;;;5.18;;
59599;SDS011;61855;55.030;73.326;2022-07-24T07:52:44;42.03;;;9.23;;
59599;SDS011;61855;55.030;73.326;2022-07-24T07:55:12;8.07;;;2.20;;
59599;SDS011;61855;55.030;73.326;2022-07-24T07:57:38;29.58;;;5.10;;
59599;SDS011;61855;55.030;73.326;2022-07-24T08:00:07;14.65;;;4.22;;
59599;SDS011;61855;55.030;73.326;2022-07-24T08:02:37;22.13;;;5.10;;
59599;SDS011;61855;55.030;73.326;2022-07-24T08:05:03;7.05;;;2.40;;
59599;SDS011;61855;55.030;73.326;2022-07-24T08:07:30;8.13;;;2.00;;
59599;SDS011;61855;55.030;73.326;2022-07-24T08:09:56;4.60;;;1.83;;
59599;SDS011;61855;55.030;73.326;2022-07-24T08:12:23;6.03;;;2.15;;
59599;SDS011;61855;55.030;73.326;2022-07-24T08:14:49;4.15;;;1.92;;
59599;SDS011;61855;55.030;73.326;2022-07-24T08:17:15;8.10;;;2.60;;
59599;SDS011;61855;55.030;73.326;2022-07-24T08:19:41;27.40;;;4.97;;
59599;SDS011;61855;55.030;73.326;2022-07-24T08:22:07;15.80;;;3.15;;
59599;SDS011;61855;55.030;73.326;2022-07-24T08:24:33;20.45;;;5.78;;
59599;SDS011;61855;55.030;73.326;2022-07-24T08:27:00;16.33;;;4.78;;
59599;SDS011;61855;55.030;73.326;2022-07-24T08:29:26;13.38;;;3.47;;
59599;SDS011;61855;55.030;73.326;2022-07-24T08:31:52;1.95;;;1.63;;
59599;SDS011;61855;55.030;73.326;2022-07-24T08:34:18;9.00;;;3.97;;
59599;SDS011;61855;55.030;73.326;2022-07-24T08:36:44;10.45;;;2.42;;
59599;SDS011;61855;55.030;73.326;2022-07-24T08:39:11;16.38;;;7.72;;
59599;SDS011;61855;55.030;73.326;2022-07-24T08:41:39;12.35;;;6.13;;
59599;SDS011;61855;55.030;73.326;2022-07-24T08:44:15;6.68;;;2.65;;
59599;SDS011;61855;55.030;73.326;2022-07-24T08:46:41;5.25;;;2.35;;
59599;SDS011;61855;55.030;73.326;2022-07-24T08:49:09;6.57;;;2.28;;
59599;SDS011;61855;55.030;73.326;2022-07-24T08:51:47;10.75;;;3.13;;
59599;SDS011;61855;55.030;73.326;2022-07-24T08:54:24;7.50;;;2.33;;
59599;SDS011;61855;55.030;73.326;2022-07-24T08:56:50;17.05;;;4.20;;
59599;SDS011;61855;55.030;73.326;2022-07-24T08:59:17;31.92;;;14.38;;
59599;SDS011;61855;55.030;73.326;2022-07-24T09:01:45;28.90;;;12.85;;
59599;SDS011;61855;55.030;73.326;2022-07-24T09:07:01;8.27;;;4.88;;
59599;SDS011;61855;55.030;73.326;2022-07-24T09:09:30;9.55;;;3.50;;
59599;SDS011;61855;55.030;73.326;2022-07-24T09:12:07;16.90;;;4.60;;
59599;SDS011;61855;55.030;73.326;2022-07-24T09:14:35;16.90;;;3.65;;
59599;SDS011;61855;55.030;73.326;2022-07-24T09:17:05;28.80;;;5.43;;
59599;SDS011;61855;55.030;73.326;2022-07-24T09:20:17;22.52;;;4.40;;
59599;SDS011;61855;55.030;73.326;2022-07-24T09:25:19;9.38;;;4.03;;
59599;SDS011;61855;55.030;73.326;2022-07-24T09:27:54;10.90;;;3.90;;
59599;SDS011;61855;55.030;73.326;2022-07-24T09:30:27;11.70;;;3.90;;
59599;SDS011;61855;55.030;73.326;2022-07-24T09:32:58;5.90;;;3.20;;
59599;SDS011;61855;55.030;73.326;2022-07-24T09:35:37;12.35;;;5.82;;
59599;SDS011;61855;55.030;73.326;2022-07-24T09:38:04;15.98;;;5.20;;
59599;SDS011;61855;55.030;73.326;2022-07-24T09:40:32;9.13;;;3.95;;
59599;SDS011;61855;55.030;73.326;2022-07-24T09:48:21;5.55;;;2.95;;
59599;SDS011;61855;55.030;73.326;2022-07-24T09:50:49;11.95;;;3.90;;
59599;SDS011;61855;55.030;73.326;2022-07-24T09:53:23;6.00;;;2.67;;
59599;SDS011;61855;55.030;73.326;2022-07-24T09:56:34;4.90;;;3.33;;
59599;SDS011;61855;55.030;73.326;2022-07-24T09:59:01;11.90;;;3.33;;
59599;SDS011;61855;55.030;73.326;2022-07-24T10:01:33;8.02;;;3.35;;
59599;SDS011;61855;55.030;73.326;2022-07-24T10:04:02;3.30;;;2.40;;
59599;SDS011;61855;55.030;73.326;2022-07-24T10:06:31;4.05;;;2.15;;
59599;SDS011;61855;55.030;73.326;2022-07-24T10:09:02;3.65;;;2.80;;
59599;SDS011;61855;55.030;73.326;2022-07-24T10:11:28;9.68;;;3.80;;
59599;SDS011;61855;55.030;73.326;2022-07-24T10:13:59;4.60;;;2.65;;
59599;SDS011;61855;55.030;73.326;2022-07-24T10:16:27;18.67;;;4.75;;
59599;SDS011;61855;55.030;73.326;2022-07-24T10:19:01;23.52;;;6.10;;
59599;SDS011;61855;55.030;73.326;2022-07-24T10:29:28;4.55;;;2.65;;
59599;SDS011;61855;55.030;73.326;2022-07-24T10:31:55;8.18;;;3.78;;
59599;SDS011;61855;55.030;73.326;2022-07-24T10:37:19;6.03;;;3.55;;
59599;SDS011;61855;55.030;73.326;2022-07-24T10:42:28;4.13;;;3.08;;
59599;SDS011;61855;55.030;73.326;2022-07-24T10:45:12;16.00;;;5.00;;
59599;SDS011;61855;55.030;73.326;2022-07-24T10:47:39;8.13;;;4.63;;
59599;SDS011;61855;55.030;73.326;2022-07-24T10:50:08;5.13;;;3.70;;
59599;SDS011;61855;55.030;73.326;2022-07-24T10:52:34;6.18;;;3.55;;
59599;SDS011;61855;55.030;73.326;2022-07-24T10:58:00;5.57;;;4.15;;
59599;SDS011;61855;55.030;73.326;2022-07-24T11:00:39;6.75;;;3.83;;
59599;SDS011;61855;55.030;73.326;2022-07-24T11:03:19;9.15;;;3.55;;
59599;SDS011;61855;55.030;73.326;2022-07-24T11:06:05;19.30;;;5.20;;
59599;SDS011;61855;55.030;73.326;2022-07-24T11:08:39;6.05;;;2.80;;
59599;SDS011;61855;55.030;73.326;2022-07-24T11:11:17;5.57;;;3.40;;
59599;SDS011;61855;55.030;73.326;2022-07-24T11:13:46;7.93;;;3.90;;
59599;SDS011;61855;55.030;73.326;2022-07-24T11:16:17;4.20;;;3.05;;
59599;SDS011;61855;55.030;73.326;2022-07-24T11:26:53;4.97;;;3.53;;
59599;SDS011;61855;55.030;73.326;2022-07-24T11:29:27;5.40;;;3.88;;
59599;SDS011;61855;55.030;73.326;2022-07-24T11:31:54;5.70;;;4.40;;
59599;SDS011;61855;55.030;73.326;2022-07-24T11:34:23;9.45;;;5.68;;
59599;SDS011;61855;55.030;73.326;2022-07-24T11:36:51;6.13;;;4.10;;
59599;SDS011;61855;55.030;73.326;2022-07-24T11:39:19;7.97;;;4.20;;
59599;SDS011;61855;55.030;73.326;2022-07-24T11:42:01;9.10;;;3.92;;
59599;SDS011;61855;55.030;73.326;2022-07-24T11:44:29;7.90;;;4.25;;
59599;SDS011;61855;55.030;73.326;2022-07-24T11:46:58;5.22;;;3.85;;
59599;SDS011;61855;55.030;73.326;2022-07-24T11:49:26;7.68;;;3.97;;
59599;SDS011;61855;55.030;73.326;2022-07-24T11:51:54;8.88;;;4.50;;
59599;SDS011;61855;55.030;73.326;2022-07-24T11:54:26;7.70;;;4.07;;
59599;SDS011;61855;55.030;73.326;2022-07-24T11:56:58;5.18;;;3.60;;
59599;SDS011;61855;55.030;73.326;2022-07-24T11:59:33;5.22;;;3.60;;
59599;SDS011;61855;55.030;73.326;2022-07-24T12:02:02;3.75;;;3.00;;
59599;SDS011;61855;55.030;73.326;2022-07-24T12:04:33;3.97;;;3.58;;
59599;SDS011;61855;55.030;73.326;2022-07-24T12:07:11;4.40;;;3.47;;
59599;SDS011;61855;55.030;73.326;2022-07-24T12:09:52;6.88;;;3.90;;
59599;SDS011;61855;55.030;73.326;2022-07-24T12:12:35;6.25;;;4.07;;
59599;SDS011;61855;55.030;73.326;2022-07-24T12:20:22;7.85;;;4.10;;
59599;SDS011;61855;55.030;73.326;2022-07-24T12:22:50;10.52;;;4.30;;
59599;SDS011;61855;55.030;73.326;2022-07-24T12:25:17;6.55;;;3.50;;
59599;SDS011;61855;55.030;73.326;2022-07-24T12:27:44;8.18;;;4.47;;
59599;SDS011;61855;55.030;73.326;2022-07-24T12:30:20;6.75;;;4.20;;
59599;SDS011;61855;55.030;73.326;2022-07-24T12:32:56;8.57;;;4.40;;
59599;SDS011;61855;55.030;73.326;2022-07-24T12:35:33;6.03;;;3.85;;
59599;SDS011;61855;55.030;73.326;2022-07-24T12:38:06;8.35;;;3.83;;
59599;SDS011;61855;55.030;73.326;2022-07-24T12:40:36;6.78;;;3.63;;
59599;SDS011;61855;55.030;73.326;2022-07-24T12:43:09;10.48;;;3.80;;
59599;SDS011;61855;55.030;73.326;2022-07-24T12:45:36;5.97;;;3.70;;
59599;SDS011;61855;55.030;73.326;2022-07-24T12:48:10;14.77;;;4.28;;
59599;SDS011;61855;55.030;73.326;2022-07-24T12:51:19;5.65;;;3.47;;
59599;SDS011;61855;55.030;73.326;2022-07-24T12:53:39;11.15;;;4.55;;
59599;SDS011;61855;55.030;73.326;2022-07-24T12:56:11;16.05;;;5.65;;
59599;SDS011;61855;55.030;73.326;2022-07-24T12:58:55;5.22;;;3.50;;
59599;SDS011;61855;55.030;73.326;2022-07-24T13:04:14;6.35;;;4.50;;
59599;SDS011;61855;55.030;73.326;2022-07-24T13:06:42;6.65;;;3.72;;
59599;SDS011;61855;55.030;73.326;2022-07-24T13:09:13;5.80;;;4.18;;
59599;SDS011;61855;55.030;73.326;2022-07-24T13:11:45;5.00;;;3.35;;
59599;SDS011;61855;55.030;73.326;2022-07-24T13:14:12;5.03;;;3.90;;
59599;SDS011;61855;55.030;73.326;2022-07-24T13:16:40;15.80;;;4.22;;
59599;SDS011;61855;55.030;73.326;2022-07-24T13:19:14;8.10;;;4.15;;
59599;SDS011;61855;55.030;73.326;2022-07-24T13:21:42;10.88;;;4.75;;
59599;SDS011;61855;55.030;73.326;2022-07-24T13:24:09;10.05;;;4.40;;
59599;SDS011;61855;55.030;73.326;2022-07-24T13:26:46;6.50;;;3.38;;
59599;SDS011;61855;55.030;73.326;2022-07-24T13:29:12;8.57;;;3.50;;
59599;SDS011;61855;55.030;73.326;2022-07-24T13:31:41;7.22;;;4.90;;
59599;SDS011;61855;55.030;73.326;2022-07-24T13:34:18;4.82;;;4.03;;
59599;SDS011;61855;55.030;73.326;2022-07-24T13:36:45;8.82;;;5.65;;
59599;SDS011;61855;55.030;73.326;2022-07-24T13:39:12;7.13;;;4.85;;
59599;SDS011;61855;55.030;73.326;2022-07-24T13:41:39;12.95;;;4.90;;
59599;SDS011;61855;55.030;73.326;2022-07-24T13:44:06;8.27;;;4.20;;
59599;SDS011;61855;55.030;73.326;2022-07-24T13:46:33;6.60;;;3.25;;
59599;SDS011;61855;55.030;73.326;2022-07-24T13:49:00;5.75;;;3.75;;
59599;SDS011;61855;55.030;73.326;2022-07-24T13:51:29;7.18;;;4.22;;
59599;SDS011;61855;55.030;73.326;2022-07-24T13:53:58;5.25;;;3.42;;
59599;SDS011;61855;55.030;73.326;2022-07-24T13:56:25;7.05;;;3.50;;
59599;SDS011;61855;55.030;73.326;2022-07-24T13:58:52;7.32;;;4.60;;
59599;SDS011;61855;55.030;73.326;2022-07-24T14:01:19;4.43;;;3.35;;
59599;SDS011;61855;55.030;73.326;2022-07-24T14:03:51;10.73;;;4.03;;
59599;SDS011;61855;55.030;73.326;2022-07-24T14:06:17;7.25;;;4.30;;
59599;SDS011;61855;55.030;73.326;2022-07-24T14:08:54;9.25;;;4.00;;
59599;SDS011;61855;55.030;73.326;2022-07-24T14:11:20;6.90;;;4.57;;
59599;SDS011;61855;55.030;73.326;2022-07-24T14:13:45;8.07;;;3.63;;
59599;SDS011;61855;55.030;73.326;2022-07-24T14:16:11;12.98;;;4.95;;
59599;SDS011;61855;55.030;73.326;2022-07-24T14:18:38;6.97;;;3.60;;
59599;SDS011;61855;55.030;73.326;2022-07-24T14:21:05;8.93;;;3.90;;
59599;SDS011;61855;55.030;73.326;2022-07-24T14:23:41;9.35;;;4.88;;
59599;SDS011;61855;55.030;73.326;2022-07-24T14:26:12;17.95;;;7.93;;
59599;SDS011;61855;55.030;73.326;2022-07-24T14:28:46;9.93;;;4.93;;
59599;SDS011;61855;55.030;73.326;2022-07-24T14:31:15;9.68;;;5.32;;
59599;SDS011;61855;55.030;73.326;2022-07-24T14:33:41;24.05;;;9.55;;
59599;SDS011;61855;55.030;73.326;2022-07-24T14:36:07;32.90;;;15.50;;
59599;SDS011;61855;55.030;73.326;2022-07-24T14:38:34;20.52;;;9.23;;
59599;SDS011;61855;55.030;73.326;2022-07-24T14:41:00;15.25;;;9.38;;
59599;SDS011;61855;55.030;73.326;2022-07-24T14:43:26;19.30;;;11.85;;
59599;SDS011;61855;55.030;73.326;2022-07-24T14:45:52;31.15;;;12.50;;
59599;SDS011;61855;55.030;73.326;2022-07-24T14:48:21;16.92;;;7.10;;
59599;SDS011;61855;55.030;73.326;2022-07-24T14:50:47;24.58;;;10.93;;
59599;SDS011;61855;55.030;73.326;2022-07-24T14:53:13;18.90;;;8.90;;
59599;SDS011;61855;55.030;73.326;2022-07-24T14:55:39;11.82;;;5.60;;
59599;SDS011;61855;55.030;73.326;2022-07-24T14:58:05;16.48;;;6.13;;
59599;SDS011;61855;55.030;73.326;2022-07-24T15:00:31;14.70;;;5.63;;
59599;SDS011;61855;55.030;73.326;2022-07-24T15:02:57;13.18;;;5.88;;
59599;SDS011;61855;55.030;73.326;2022-07-24T15:05:23;11.90;;;5.60;;
59599;SDS011;61855;55.030;73.326;2022-07-24T15:07:49;16.13;;;5.95;;
59599;SDS011;61855;55.030;73.326;2022-07-24T15:10:17;22.83;;;8.45;;
59599;SDS011;61855;55.030;73.326;2022-07-24T15:12:44;20.10;;;6.95;;
59599;SDS011;61855;55.030;73.326;2022-07-24T15:15:15;18.73;;;7.57;;
59599;SDS011;61855;55.030;73.326;2022-07-24T15:17:41;18.45;;;9.43;;
59599;SDS011;61855;55.030;73.326;2022-07-24T15:20:07;24.17;;;10.55;;
59599;SDS011;61855;55.030;73.326;2022-07-24T15:22:34;22.63;;;11.73;;
59599;SDS011;61855;55.030;73.326;2022-07-24T15:25:00;16.90;;;8.38;;